sensor_id;sensor_type;location;lat;lon;timestamp;pressure;altitude;pressure_sealevel;temperature;humidity
3590;BME280;1809;48.470;9.226;2022-10-31T00:02:16;97405.69;;;11.04;100.00
3590;BME280;1809;48.470;9.226;2022-10-31T00:04:41;97406.81;;;10.98;100.00
3590;BME280;1809;48.470;9.226;2022-10-31T00:07:06;97406.06;;;10.92;100.00
3590;BME280;1809;48.470;9.226;2022-10-31T00:09:32;97398.34;;;10.86;100.00
3590;BME280;1809;48.470;9.226;2022-10-31T00:11:57;97401.00;;;10.86;100.00
3590;BME280;1809;48.470;9.226;2022-10-31T00:14:22;97396.97;;;10.88;100.00
3590;BME280;1809;48.470;9.226;2022-10-31T00:16:48;97410.63;;;10.87;100.00
3590;BME280;1809;48.470;9.226;2022-10-31T00:19:13;97399.41;;;10.85;100.00
3590;BME280;1809;48.470;9.226;2022-10-31T00:21:38;97400.97;;;10.91;100.00
3590;BME280;1809;48.470;9.226;2022-10-31T00:24:04;97399.91;;;10.87;100.00
3590;BME280;1809;48.470;9.226;2022-10-31T00:26:31;97398.84;;;10.93;100.00
3590;BME280;1809;48.470;9.226;2022-10-31T00:28:57;97403.16;;;10.84;100.00
3590;BME280;1809;48.470;9.226;2022-10-31T00:31:23;97403.44;;;10.82;100.00
3590;BME280;1809;48.470;9.226;2022-10-31T00:33:48;97389.56;;;10.80;100.00
3590;BME280;1809;48.470;9.226;2022-10-31T00:36:15;97407.50;;;10.74;100.00
3590;BME280;1809;48.470;9.226;2022-10-31T00:38:42;97405.91;;;10.73;100.00
3590;BME280;1809;48.470;9.226;2022-10-31T00:41:08;97407.59;;;10.64;100.00
3590;BME280;1809;48.470;9.226;2022-10-31T00:43:34;97408.16;;;10.56;100.00
3590;BME280;1809;48.470;9.226;2022-10-31T00:46:00;97404.97;;;10.49;100.00
3590;BME280;1809;48.470;9.226;2022-10-31T00:48:25;97401.53;;;10.44;100.00
3590;BME280;1809;48.470;9.226;2022-10-31T00:50:50;97408.22;;;10.41;100.00
3590;BME280;1809;48.470;9.226;2022-10-31T00:53:16;97403.72;;;10.37;100.00
3590;BME280;1809;48.470;9.226;2022-10-31T00:55:41;97402.66;;;10.33;100.00
3590;BME280;1809;48.470;9.226;2022-10-31T00:58:06;97401.34;;;10.30;100.00
3590;BME280;1809;48.470;9.226;2022-10-31T01:00:32;97401.31;;;10.35;100.00
3590;BME280;1809;48.470;9.226;2022-10-31T01:02:57;97401.09;;;10.27;100.00
3590;BME280;1809;48.470;9.226;2022-10-31T01:05:22;97401.91;;;10.22;100.00
3590;BME280;1809;48.470;9.226;2022-10-31T01:07:47;97407.78;;;10.24;100.00
3590;BME280;1809;48.470;9.226;2022-10-31T01:10:13;97401.94;;;10.17;100.00
3590;BME280;1809;48.470;9.226;2022-10-31T01:12:40;97396.03;;;10.20;100.00
3590;BME280;1809;48.470;9.226;2022-10-31T01:15:07;97394.13;;;10.25;100.00
3590;BME280;1809;48.470;9.226;2022-10-31T01:17:33;97393.38;;;10.15;100.00
3590;BME280;1809;48.470;9.226;2022-10-31T01:19:59;97383.75;;;10.09;100.00
3590;BME280;1809;48.470;9.226;2022-10-31T01:22:24;97386.97;;;10.11;100.00
3590;BME280;1809;48.470;9.226;2022-10-31T01:24:50;97393.88;;;10.12;100.00
3590;BME280;1809;48.470;9.226;2022-10-31T01:27:15;97386.19;;;10.05;100.00
3590;BME280;1809;48.470;9.226;2022-10-31T01:29:40;97391.53;;;10.05;100.00
3590;BME280;1809;48.470;9.226;2022-10-31T01:32:06;97388.84;;;10.10;100.00
3590;BME280;1809;48.470;9.226;2022-10-31T01:34:31;97382.72;;;10.05;100.00
3590;BME280;1809;48.470;9.226;2022-10-31T01:36:56;97385.66;;;10.03;100.00
3590;BME280;1809;48.470;9.226;2022-10-31T01:39:22;97384.28;;;10.06;100.00
3590;BME280;1809;48.470;9.226;2022-10-31T01:41:50;97385.91;;;10.07;100.00
3590;BME280;1809;48.470;9.226;2022-10-31T01:46:43;97384.84;;;10.03;100.00
3590;BME280;1809;48.470;9.226;2022-10-31T01:49:16;97390.19;;;10.03;100.00
3590;BME280;1809;48.470;9.226;2022-10-31T01:51:47;97376.31;;;10.01;100.00
3590;BME280;1809;48.470;9.226;2022-10-31T01:54:16;97383.81;;;9.99;100.00
3590;BME280;1809;48.470;9.226;2022-10-31T01:56:45;97377.38;;;10.00;100.00
3590;BME280;1809;48.470;9.226;2022-10-31T01:59:16;97381.13;;;9.94;100.00
3590;BME280;1809;48.470;9.226;2022-10-31T02:01:43;97382.75;;;9.95;100.00
3590;BME280;1809;48.470;9.226;2022-10-31T02:04:08;97381.16;;;9.89;100.00
3590;BME280;1809;48.470;9.226;2022-10-31T02:06:47;97379.84;;;9.86;100.00
3590;BME280;1809;48.470;9.226;2022-10-31T02:09:15;97385.41;;;9.95;100.00
3590;BME280;1809;48.470;9.226;2022-10-31T02:11:42;97379.53;;;9.98;100.00
3590;BME280;1809;48.470;9.226;2022-10-31T02:14:09;97383.00;;;9.93;100.00
3590;BME280;1809;48.470;9.226;2022-10-31T02:16:35;97372.59;;;9.92;100.00
3590;BME280;1809;48.470;9.226;2022-10-31T02:19:00;97383.03;;;9.88;100.00
3590;BME280;1809;48.470;9.226;2022-10-31T02:21:51;97376.38;;;9.86;100.00
3590;BME280;1809;48.470;9.226;2022-10-31T02:24:45;97375.31;;;9.82;100.00
3590;BME280;1809;48.470;9.226;2022-10-31T02:27:23;97373.72;;;9.76;100.00
3590;BME280;1809;48.470;9.226;2022-10-31T02:30:03;97372.16;;;9.69;100.00
3590;BME280;1809;48.470;9.226;2022-10-31T02:32:45;97372.72;;;9.61;100.00
3590;BME280;1809;48.470;9.226;2022-10-31T02:45:56;97362.31;;;9.45;100.00
3590;BME280;1809;48.470;9.226;2022-10-31T02:48:27;97370.06;;;9.41;100.00
3590;BME280;1809;48.470;9.226;2022-10-31T02:51:01;97366.59;;;9.46;100.00
3590;BME280;1809;48.470;9.226;2022-10-31T02:53:35;97363.41;;;9.49;100.00
3590;BME280;1809;48.470;9.226;2022-10-31T02:58:31;97358.88;;;9.39;100.00
3590;BME280;1809;48.470;9.226;2022-10-31T03:06:41;97361.03;;;9.27;100.00
3590;BME280;1809;48.470;9.226;2022-10-31T03:09:20;97354.06;;;9.31;100.00
3590;BME280;1809;48.470;9.226;2022-10-31T03:17:07;97357.81;;;9.25;100.00
3590;BME280;1809;48.470;9.226;2022-10-31T03:19:42;97355.69;;;9.27;100.00
3590;BME280;1809;48.470;9.226;2022-10-31T03:22:24;97350.06;;;9.29;100.00
3590;BME280;1809;48.470;9.226;2022-10-31T03:24:52;97348.75;;;9.26;100.00
3590;BME280;1809;48.470;9.226;2022-10-31T03:27:22;97352.22;;;9.22;100.00
3590;BME280;1809;48.470;9.226;2022-10-31T03:29:51;97349.81;;;9.20;100.00
3590;BME280;1809;48.470;9.226;2022-10-31T03:32:32;97349.31;;;9.18;100.00
3590;BME280;1809;48.470;9.226;2022-10-31T03:35:01;97344.75;;;9.13;100.00
3590;BME280;1809;48.470;9.226;2022-10-31T03:37:30;97345.31;;;9.10;100.00
3590;BME280;1809;48.470;9.226;2022-10-31T03:39:58;97349.56;;;9.06;100.00
3590;BME280;1809;48.470;9.226;2022-10-31T03:42:31;97344.75;;;9.03;100.00
3590;BME280;1809;48.470;9.226;2022-10-31T03:45:06;97337.03;;;8.97;100.00
3590;BME280;1809;48.470;9.226;2022-10-31T03:47:35;97339.69;;;8.97;100.00
3590;BME280;1809;48.470;9.226;2022-10-31T03:50:03;97333.06;;;8.89;100.00
3590;BME280;1809;48.470;9.226;2022-10-31T03:55:30;97338.13;;;8.86;100.00
3590;BME280;1809;48.470;9.226;2022-10-31T04:00:33;97333.31;;;8.88;100.00
3590;BME280;1809;48.470;9.226;2022-10-31T04:03:03;97336.50;;;8.85;100.00
3590;BME280;1809;48.470;9.226;2022-10-31T04:05:30;97330.91;;;8.81;100.00
3590;BME280;1809;48.470;9.226;2022-10-31T04:07:58;97328.50;;;8.85;100.00
3590;BME280;1809;48.470;9.226;2022-10-31T04:10:26;97334.66;;;8.85;100.00
3590;BME280;1809;48.470;9.226;2022-10-31T04:13:07;97329.31;;;8.85;100.00
3590;BME280;1809;48.470;9.226;2022-10-31T04:15:36;97326.91;;;8.84;100.00
3590;BME280;1809;48.470;9.226;2022-10-31T04:18:04;97326.38;;;8.82;100.00
3590;BME280;1809;48.470;9.226;2022-10-31T04:20:41;97334.66;;;8.80;100.00
3590;BME280;1809;48.470;9.226;2022-10-31T04:23:22;97330.66;;;8.78;100.00
3590;BME280;1809;48.470;9.226;2022-10-31T04:25:48;97329.31;;;8.70;100.00
3590;BME280;1809;48.470;9.226;2022-10-31T04:28:14;97325.03;;;8.64;100.00
3590;BME280;1809;48.470;9.226;2022-10-31T04:30:39;97325.59;;;8.71;100.00
3590;BME280;1809;48.470;9.226;2022-10-31T04:33:04;97330.91;;;8.66;100.00
3590;BME280;1809;48.470;9.226;2022-10-31T04:35:30;97332.78;;;8.71;100.00
3590;BME280;1809;48.470;9.226;2022-10-31T04:37:55;97331.44;;;8.68;100.00
3590;BME280;1809;48.470;9.226;2022-10-31T04:40:21;97325.31;;;8.68;100.00
3590;BME280;1809;48.470;9.226;2022-10-31T04:42:46;97327.44;;;8.60;100.00
3590;BME280;1809;48.470;9.226;2022-10-31T04:45:12;97327.44;;;8.55;100.00
3590;BME280;1809;48.470;9.226;2022-10-31T04:47:37;97324.50;;;8.57;100.00
3590;BME280;1809;48.470;9.226;2022-10-31T04:50:03;97321.06;;;8.61;100.00
3590;BME280;1809;48.470;9.226;2022-10-31T04:52:28;97314.09;;;8.65;100.00
3590;BME280;1809;48.470;9.226;2022-10-31T04:54:54;97320.50;;;8.64;100.00
3590;BME280;1809;48.470;9.226;2022-10-31T04:57:19;97317.84;;;8.70;100.00
3590;BME280;1809;48.470;9.226;2022-10-31T04:59:44;97313.84;;;8.67;100.00
3590;BME280;1809;48.470;9.226;2022-10-31T05:02:10;97309.31;;;8.68;100.00
3590;BME280;1809;48.470;9.226;2022-10-31T05:04:35;97304.25;;;8.61;100.00
3590;BME280;1809;48.470;9.226;2022-10-31T05:07:00;97302.91;;;8.63;100.00
3590;BME280;1809;48.470;9.226;2022-10-31T05:09:26;97300.78;;;8.71;100.00
3590;BME280;1809;48.470;9.226;2022-10-31T05:11:51;97301.84;;;8.70;100.00
3590;BME280;1809;48.470;9.226;2022-10-31T05:14:17;97303.44;;;8.60;100.00
3590;BME280;1809;48.470;9.226;2022-10-31T05:16:42;97292.78;;;8.50;100.00
3590;BME280;1809;48.470;9.226;2022-10-31T05:19:07;97301.28;;;8.47;100.00
3590;BME280;1809;48.470;9.226;2022-10-31T05:21:33;97288.25;;;8.51;100.00
3590;BME280;1809;48.470;9.226;2022-10-31T05:23:58;97283.72;;;8.56;100.00
3590;BME280;1809;48.470;9.226;2022-10-31T05:26:23;97290.13;;;8.45;100.00
3590;BME280;1809;48.470;9.226;2022-10-31T05:28:49;97284.22;;;8.38;100.00
3590;BME280;1809;48.470;9.226;2022-10-31T05:31:14;97283.44;;;8.38;100.00
3590;BME280;1809;48.470;9.226;2022-10-31T05:33:40;97279.47;;;8.40;100.00
3590;BME280;1809;48.470;9.226;2022-10-31T05:36:06;97283.69;;;8.41;100.00
3590;BME280;1809;48.470;9.226;2022-10-31T05:38:31;97274.09;;;8.35;100.00
3590;BME280;1809;48.470;9.226;2022-10-31T05:40:56;97273.84;;;8.32;100.00
3590;BME280;1809;48.470;9.226;2022-10-31T05:43:28;97275.72;;;8.36;100.00
3590;BME280;1809;48.470;9.226;2022-10-31T05:45:54;97266.66;;;8.37;100.00
3590;BME280;1809;48.470;9.226;2022-10-31T05:48:20;97264.81;;;8.43;100.00
3590;BME280;1809;48.470;9.226;2022-10-31T05:50:47;97265.06;;;8.41;100.00
3590;BME280;1809;48.470;9.226;2022-10-31T05:53:13;97264.00;;;8.42;100.00
3590;BME280;1809;48.470;9.226;2022-10-31T05:55:38;97270.94;;;8.43;100.00
3590;BME280;1809;48.470;9.226;2022-10-31T05:58:05;97273.56;;;8.38;100.00
3590;BME280;1809;48.470;9.226;2022-10-31T06:00:31;97269.84;;;8.39;100.00
3590;BME280;1809;48.470;9.226;2022-10-31T06:03:00;97274.09;;;8.35;100.00
3590;BME280;1809;48.470;9.226;2022-10-31T06:05:28;97275.72;;;8.41;100.00
3590;BME280;1809;48.470;9.226;2022-10-31T06:07:53;97277.31;;;8.37;100.00
3590;BME280;1809;48.470;9.226;2022-10-31T06:10:18;97272.53;;;8.34;100.00
3590;BME280;1809;48.470;9.226;2022-10-31T06:12:46;97274.09;;;8.35;100.00
3590;BME280;1809;48.470;9.226;2022-10-31T06:15:11;97270.94;;;8.43;100.00
3590;BME280;1809;48.470;9.226;2022-10-31T06:17:37;97274.66;;;8.42;100.00
3590;BME280;1809;48.470;9.226;2022-10-31T06:20:03;97278.38;;;8.41;100.00
3590;BME280;1809;48.470;9.226;2022-10-31T06:22:28;97278.41;;;8.46;100.00
3590;BME280;1809;48.470;9.226;2022-10-31T06:24:54;97275.72;;;8.46;100.00
3590;BME280;1809;48.470;9.226;2022-10-31T06:27:19;97281.84;;;8.47;100.00
3590;BME280;1809;48.470;9.226;2022-10-31T06:29:45;97288.00;;;8.52;100.00
3590;BME280;1809;48.470;9.226;2022-10-31T06:32:11;97285.31;;;8.57;100.00
3590;BME280;1809;48.470;9.226;2022-10-31T06:34:37;97284.00;;;8.65;100.00
3590;BME280;1809;48.470;9.226;2022-10-31T06:37:03;97279.19;;;8.67;100.00
3590;BME280;1809;48.470;9.226;2022-10-31T06:39:28;97278.41;;;8.72;100.00
3590;BME280;1809;48.470;9.226;2022-10-31T06:41:54;97274.63;;;8.73;100.00
3590;BME280;1809;48.470;9.226;2022-10-31T06:44:19;97278.63;;;8.75;100.00
3590;BME280;1809;48.470;9.226;2022-10-31T06:46:46;97281.59;;;8.84;100.00
3590;BME280;1809;48.470;9.226;2022-10-31T06:49:12;97284.50;;;8.92;100.00
3590;BME280;1809;48.470;9.226;2022-10-31T06:51:38;97283.97;;;8.95;100.00
3590;BME280;1809;48.470;9.226;2022-10-31T06:54:03;97279.44;;;8.96;100.00
3590;BME280;1809;48.470;9.226;2022-10-31T06:56:28;97276.75;;;9.01;100.00
3590;BME280;1809;48.470;9.226;2022-10-31T06:58:54;97285.28;;;9.08;100.00
3590;BME280;1809;48.470;9.226;2022-10-31T07:01:19;97280.72;;;9.13;100.00
3590;BME280;1809;48.470;9.226;2022-10-31T07:03:44;97273.50;;;9.19;100.00
3590;BME280;1809;48.470;9.226;2022-10-31T07:06:10;97273.22;;;9.26;100.00
3590;BME280;1809;48.470;9.226;2022-10-31T07:08:35;97276.66;;;9.36;100.00
3590;BME280;1809;48.470;9.226;2022-10-31T07:11:00;97268.38;;;9.43;100.00
3590;BME280;1809;48.470;9.226;2022-10-31T07:13:26;97271.28;;;9.51;100.00
3590;BME280;1809;48.470;9.226;2022-10-31T07:15:53;97268.81;;;9.60;100.00
3590;BME280;1809;48.470;9.226;2022-10-31T07:18:19;97271.16;;;9.71;100.00
3590;BME280;1809;48.470;9.226;2022-10-31T07:20:45;97275.91;;;9.85;100.00
3590;BME280;1809;48.470;9.226;2022-10-31T07:23:10;97269.47;;;9.91;100.00
3590;BME280;1809;48.470;9.226;2022-10-31T07:25:39;97276.13;;;9.98;100.00
3590;BME280;1809;48.470;9.226;2022-10-31T07:28:05;97278.75;;;10.08;100.00
3590;BME280;1809;48.470;9.226;2022-10-31T07:30:31;97273.59;;;10.27;100.00
3590;BME280;1809;48.470;9.226;2022-10-31T07:32:56;97274.03;;;10.34;100.00
3590;BME280;1809;48.470;9.226;2022-10-31T07:35:24;97270.25;;;10.45;100.00
3590;BME280;1809;48.470;9.226;2022-10-31T07:37:49;97266.97;;;10.53;100.00
3590;BME280;1809;48.470;9.226;2022-10-31T07:40:15;97268.25;;;10.61;100.00
3590;BME280;1809;48.470;9.226;2022-10-31T07:42:43;97271.03;;;10.79;100.00
3590;BME280;1809;48.470;9.226;2022-10-31T07:45:12;97268.78;;;10.92;100.00
3590;BME280;1809;48.470;9.226;2022-10-31T07:47:48;97267.31;;;11.04;100.00
3590;BME280;1809;48.470;9.226;2022-10-31T07:50:17;97261.50;;;11.21;100.00
3590;BME280;1809;48.470;9.226;2022-10-31T07:52:43;97264.13;;;11.50;100.00
3590;BME280;1809;48.470;9.226;2022-10-31T07:55:09;97272.34;;;11.58;100.00
3590;BME280;1809;48.470;9.226;2022-10-31T07:57:35;97269.53;;;11.73;100.00
3590;BME280;1809;48.470;9.226;2022-10-31T08:00:03;97263.59;;;11.76;100.00
3590;BME280;1809;48.470;9.226;2022-10-31T08:02:28;97263.16;;;11.88;100.00
3590;BME280;1809;48.470;9.226;2022-10-31T08:04:54;97262.72;;;12.00;100.00
3590;BME280;1809;48.470;9.226;2022-10-31T08:07:20;97267.97;;;12.10;100.00
3590;BME280;1809;48.470;9.226;2022-10-31T08:09:45;97265.56;;;12.27;100.00
3590;BME280;1809;48.470;9.226;2022-10-31T08:12:10;97264.03;;;12.21;100.00
3590;BME280;1809;48.470;9.226;2022-10-31T08:14:36;97266.66;;;12.26;100.00
3590;BME280;1809;48.470;9.226;2022-10-31T08:17:01;97269.03;;;12.27;100.00
3590;BME280;1809;48.470;9.226;2022-10-31T08:19:26;97263.09;;;12.30;100.00
3590;BME280;1809;48.470;9.226;2022-10-31T08:21:53;97267.28;;;12.36;100.00
3590;BME280;1809;48.470;9.226;2022-10-31T08:24:20;97263.41;;;12.29;100.00
3590;BME280;1809;48.470;9.226;2022-10-31T08:26:45;97267.59;;;12.35;100.00
3590;BME280;1809;48.470;9.226;2022-10-31T08:29:11;97259.59;;;12.49;100.00
3590;BME280;1809;48.470;9.226;2022-10-31T08:31:36;97260.22;;;12.59;100.00
3590;BME280;1809;48.470;9.226;2022-10-31T08:34:02;97266.63;;;12.63;100.00
3590;BME280;1809;48.470;9.226;2022-10-31T08:36:28;97273.91;;;13.09;100.00
3590;BME280;1809;48.470;9.226;2022-10-31T08:38:53;97265.03;;;13.54;100.00
3590;BME280;1809;48.470;9.226;2022-10-31T08:41:19;97257.59;;;13.87;100.00
3590;BME280;1809;48.470;9.226;2022-10-31T08:43:44;97259.38;;;14.05;100.00
3590;BME280;1809;48.470;9.226;2022-10-31T08:46:10;97257.97;;;14.08;100.00
3590;BME280;1809;48.470;9.226;2022-10-31T08:48:35;97255.66;;;14.15;100.00
3590;BME280;1809;48.470;9.226;2022-10-31T08:51:00;97258.00;;;13.80;100.00
3590;BME280;1809;48.470;9.226;2022-10-31T08:53:26;97256.31;;;13.84;100.00
3590;BME280;1809;48.470;9.226;2022-10-31T08:55:54;97253.72;;;13.93;100.00
3590;BME280;1809;48.470;9.226;2022-10-31T08:58:20;97257.41;;;13.97;100.00
3590;BME280;1809;48.470;9.226;2022-10-31T09:00:48;97255.78;;;14.10;100.00
3590;BME280;1809;48.470;9.226;2022-10-31T09:03:22;97258.47;;;14.10;100.00
3590;BME280;1809;48.470;9.226;2022-10-31T09:05:47;97265.59;;;14.28;100.00
3590;BME280;1809;48.470;9.226;2022-10-31T09:08:13;97260.69;;;14.30;100.00
3590;BME280;1809;48.470;9.226;2022-10-31T09:10:39;97253.97;;;14.19;100.00
3590;BME280;1809;48.470;9.226;2022-10-31T09:13:09;97251.16;;;14.24;100.00
3590;BME280;1809;48.470;9.226;2022-10-31T09:15:37;97252.19;;;14.50;100.00
3590;BME280;1809;48.470;9.226;2022-10-31T09:18:04;97254.75;;;14.77;100.00
3590;BME280;1809;48.470;9.226;2022-10-31T09:20:31;97252.28;;;14.89;100.00
3590;BME280;1809;48.470;9.226;2022-10-31T09:22:58;97245.25;;;15.11;100.00
3590;BME280;1809;48.470;9.226;2022-10-31T09:25:24;97250.53;;;15.16;100.00
3590;BME280;1809;48.470;9.226;2022-10-31T09:27:50;97249.88;;;15.41;100.00
3590;BME280;1809;48.470;9.226;2022-10-31T09:30:15;97246.00;;;15.64;100.00
3590;BME280;1809;48.470;9.226;2022-10-31T09:32:40;97240.97;;;15.88;100.00
3590;BME280;1809;48.470;9.226;2022-10-31T09:35:06;97236.56;;;16.27;100.00
3590;BME280;1809;48.470;9.226;2022-10-31T09:37:32;97227.97;;;16.07;100.00
3590;BME280;1809;48.470;9.226;2022-10-31T09:39:57;97227.69;;;16.18;100.00
3590;BME280;1809;48.470;9.226;2022-10-31T09:42:33;97225.91;;;16.47;100.00
3590;BME280;1809;48.470;9.226;2022-10-31T09:45:31;97232.75;;;16.79;100.00
3590;BME280;1809;48.470;9.226;2022-10-31T09:51:03;97220.31;;;16.95;100.00
3590;BME280;1809;48.470;9.226;2022-10-31T09:53:39;97221.56;;;17.06;100.00
3590;BME280;1809;48.470;9.226;2022-10-31T09:56:16;97225.34;;;17.14;100.00
3590;BME280;1809;48.470;9.226;2022-10-31T09:58:48;97228.78;;;17.32;100.00
3590;BME280;1809;48.470;9.226;2022-10-31T10:01:25;97223.22;;;17.37;100.00
3590;BME280;1809;48.470;9.226;2022-10-31T10:03:57;97214.06;;;17.58;100.00
3590;BME280;1809;48.470;9.226;2022-10-31T10:06:33;97213.56;;;17.65;100.00
3590;BME280;1809;48.470;9.226;2022-10-31T10:09:00;97219.31;;;17.84;100.00
3590;BME280;1809;48.470;9.226;2022-10-31T10:11:46;97225.16;;;18.15;100.00
3590;BME280;1809;48.470;9.226;2022-10-31T10:19:53;97213.91;;;17.84;100.00
3590;BME280;1809;48.470;9.226;2022-10-31T10:25:16;97214.91;;;18.00;100.00
3590;BME280;1809;48.470;9.226;2022-10-31T10:27:59;97211.16;;;17.93;100.00
3590;BME280;1809;48.470;9.226;2022-10-31T10:30:47;97204.03;;;18.09;100.00
3590;BME280;1809;48.470;9.226;2022-10-31T10:35:48;97194.78;;;18.31;100.00
3590;BME280;1809;48.470;9.226;2022-10-31T10:38:25;97198.66;;;18.42;100.00
3590;BME280;1809;48.470;9.226;2022-10-31T10:40:53;97196.41;;;18.44;100.00
3590;BME280;1809;48.470;9.226;2022-10-31T10:43:36;97184.06;;;18.34;100.00
3590;BME280;1809;48.470;9.226;2022-10-31T10:51:22;97184.53;;;19.02;100.00
3590;BME280;1809;48.470;9.226;2022-10-31T10:53:52;97181.50;;;19.15;100.00
3590;BME280;1809;48.470;9.226;2022-10-31T10:56:37;97174.78;;;19.46;100.00
3590;BME280;1809;48.470;9.226;2022-10-31T10:59:11;97173.72;;;19.62;100.00
3590;BME280;1809;48.470;9.226;2022-10-31T11:01:39;97166.16;;;19.80;100.00
3590;BME280;1809;48.470;9.226;2022-10-31T11:04:21;97155.66;;;19.66;100.00
3590;BME280;1809;48.470;9.226;2022-10-31T11:07:08;97151.91;;;19.83;100.00
3590;BME280;1809;48.470;9.226;2022-10-31T11:09:35;97155.53;;;19.39;100.00
3590;BME280;1809;48.470;9.226;2022-10-31T11:12:10;97143.66;;;19.31;100.00
3590;BME280;1809;48.470;9.226;2022-10-31T11:14:49;97138.34;;;19.22;100.00
3590;BME280;1809;48.470;9.226;2022-10-31T11:17:35;97136.31;;;19.07;100.00
3590;BME280;1809;48.470;9.226;2022-10-31T11:20:24;97143.31;;;19.20;100.00
3590;BME280;1809;48.470;9.226;2022-10-31T11:23:10;97145.69;;;19.10;100.00
3590;BME280;1809;48.470;9.226;2022-10-31T11:25:51;97128.66;;;19.46;100.00
3590;BME280;1809;48.470;9.226;2022-10-31T11:28:17;97126.16;;;19.53;100.00
3590;BME280;1809;48.470;9.226;2022-10-31T11:30:46;97123.19;;;19.33;100.00
3590;BME280;1809;48.470;9.226;2022-10-31T11:33:30;97120.28;;;19.26;100.00
3590;BME280;1809;48.470;9.226;2022-10-31T11:35:57;97116.47;;;19.40;100.00
3590;BME280;1809;48.470;9.226;2022-10-31T11:38:40;97107.72;;;19.58;100.00
3590;BME280;1809;48.470;9.226;2022-10-31T11:41:11;97099.44;;;19.67;100.00
3590;BME280;1809;48.470;9.226;2022-10-31T11:43:39;97099.00;;;20.05;100.00
3590;BME280;1809;48.470;9.226;2022-10-31T11:46:11;97095.59;;;20.08;100.00
3590;BME280;1809;48.470;9.226;2022-10-31T11:48:49;97093.00;;;20.39;100.00
3590;BME280;1809;48.470;9.226;2022-10-31T11:51:41;97081.13;;;20.04;100.00
3590;BME280;1809;48.470;9.226;2022-10-31T11:54:23;97081.88;;;20.60;100.00
3590;BME280;1809;48.470;9.226;2022-10-31T11:56:50;97077.47;;;20.39;100.00
3590;BME280;1809;48.470;9.226;2022-10-31T11:59:30;97083.28;;;20.54;100.00
3590;BME280;1809;48.470;9.226;2022-10-31T12:01:58;97079.56;;;20.46;100.00
3590;BME280;1809;48.470;9.226;2022-10-31T12:04:40;97079.31;;;20.35;100.00
3590;BME280;1809;48.470;9.226;2022-10-31T12:07:06;97073.03;;;19.92;100.00
3590;BME280;1809;48.470;9.226;2022-10-31T12:09:36;97072.03;;;19.84;100.00
3590;BME280;1809;48.470;9.226;2022-10-31T12:12:22;97073.50;;;19.81;100.00
3590;BME280;1809;48.470;9.226;2022-10-31T12:20:56;97073.19;;;20.11;100.00
3590;BME280;1809;48.470;9.226;2022-10-31T12:26:26;97071.28;;;19.99;100.00
3590;BME280;1809;48.470;9.226;2022-10-31T12:39:56;97045.94;;;19.79;100.00
3590;BME280;1809;48.470;9.226;2022-10-31T12:43:05;97036.56;;;19.65;100.00
3590;BME280;1809;48.470;9.226;2022-10-31T12:54:00;97025.31;;;19.51;100.00
3590;BME280;1809;48.470;9.226;2022-10-31T12:56:46;97024.09;;;19.48;100.00
3590;BME280;1809;48.470;9.226;2022-10-31T13:04:43;97009.13;;;19.02;100.00
3590;BME280;1809;48.470;9.226;2022-10-31T13:07:34;97004.34;;;19.23;100.00
3590;BME280;1809;48.470;9.226;2022-10-31T13:10:05;96999.81;;;19.40;100.00
3590;BME280;1809;48.470;9.226;2022-10-31T13:12:34;97003.41;;;19.44;100.00
3590;BME280;1809;48.470;9.226;2022-10-31T13:15:05;97003.66;;;19.26;100.00
3590;BME280;1809;48.470;9.226;2022-10-31T13:17:40;96999.09;;;19.55;100.00
3590;BME280;1809;48.470;9.226;2022-10-31T13:22:49;97003.66;;;19.26;100.00
3590;BME280;1809;48.470;9.226;2022-10-31T13:25:22;96992.34;;;19.49;100.00
3590;BME280;1809;48.470;9.226;2022-10-31T13:27:53;96992.91;;;19.30;100.00
3590;BME280;1809;48.470;9.226;2022-10-31T13:30:21;97001.91;;;19.46;100.00
3590;BME280;1809;48.470;9.226;2022-10-31T13:36:11;96985.00;;;19.65;100.00
3590;BME280;1809;48.470;9.226;2022-10-31T13:46:23;96972.69;;;19.40;100.00
3590;BME280;1809;48.470;9.226;2022-10-31T13:48:48;96966.91;;;19.69;100.00
3590;BME280;1809;48.470;9.226;2022-10-31T13:51:28;96964.63;;;19.71;100.00
3590;BME280;1809;48.470;9.226;2022-10-31T13:59:03;96950.25;;;19.55;100.00
3590;BME280;1809;48.470;9.226;2022-10-31T14:01:31;96956.53;;;19.59;100.00
3590;BME280;1809;48.470;9.226;2022-10-31T14:04:26;96959.41;;;19.78;100.00
3590;BME280;1809;48.470;9.226;2022-10-31T14:07:09;96952.91;;;19.67;100.00
3590;BME280;1809;48.470;9.226;2022-10-31T14:18:04;96936.38;;;19.44;100.00
3590;BME280;1809;48.470;9.226;2022-10-31T14:20:37;96939.00;;;19.28;100.00
3590;BME280;1809;48.470;9.226;2022-10-31T14:25:37;96934.56;;;18.96;100.00
3590;BME280;1809;48.470;9.226;2022-10-31T14:28:18;96931.41;;;18.94;100.00
3590;BME280;1809;48.470;9.226;2022-10-31T14:30:52;96928.72;;;18.94;100.00
3590;BME280;1809;48.470;9.226;2022-10-31T14:33:19;96931.41;;;18.94;100.00
3590;BME280;1809;48.470;9.226;2022-10-31T14:36:06;96922.09;;;18.79;100.00
3590;BME280;1809;48.470;9.226;2022-10-31T14:38:54;96935.06;;;18.62;100.00
3590;BME280;1809;48.470;9.226;2022-10-31T14:47:27;96943.78;;;18.67;100.00
3590;BME280;1809;48.470;9.226;2022-10-31T14:52:30;96943.63;;;18.40;100.00
3590;BME280;1809;48.470;9.226;2022-10-31T14:54:57;96941.50;;;18.57;100.00
3590;BME280;1809;48.470;9.226;2022-10-31T14:57:26;96944.09;;;18.54;100.00
3590;BME280;1809;48.470;9.226;2022-10-31T14:59:57;96942.28;;;18.46;100.00
3590;BME280;1809;48.470;9.226;2022-10-31T15:02:29;96945.00;;;18.34;100.00
3590;BME280;1809;48.470;9.226;2022-10-31T15:05:00;96943.84;;;18.35;100.00
3590;BME280;1809;48.470;9.226;2022-10-31T15:07:26;96946.78;;;18.17;100.00
3590;BME280;1809;48.470;9.226;2022-10-31T15:10:15;96947.38;;;17.90;100.00
3590;BME280;1809;48.470;9.226;2022-10-31T15:12:43;96946.91;;;17.76;100.00
3590;BME280;1809;48.470;9.226;2022-10-31T15:15:13;96940.22;;;17.61;100.00
3590;BME280;1809;48.470;9.226;2022-10-31T15:17:56;96942.19;;;17.52;100.00
3590;BME280;1809;48.470;9.226;2022-10-31T15:20:26;96933.19;;;17.28;100.00
3590;BME280;1809;48.470;9.226;2022-10-31T15:22:54;96935.88;;;17.07;100.00
3590;BME280;1809;48.470;9.226;2022-10-31T15:25:25;96938.38;;;16.91;100.00
3590;BME280;1809;48.470;9.226;2022-10-31T15:27:52;96935.59;;;16.79;100.00
3590;BME280;1809;48.470;9.226;2022-10-31T15:30:19;96934.41;;;16.68;100.00
3590;BME280;1809;48.470;9.226;2022-10-31T15:32:45;96930.59;;;16.69;100.00